Time;durP1;ratioP1;P1;durP2;ratioP2;P2;SDS_P1;SDS_P2;PMS_P1;PMS_P2;Temp;Humidity;BMP_temperature;BMP_pressure;BME280_temperature;BME280_humidity;BME280_pressure;Samples;Min_cycle;Max_cycle;Signal;HPM_P1;HPM_P2
2021/11/19 00:01:26;;;;;;;11.90;5.00;;;14.80;95.40;;;;;;5072004;28;20038;-66
2021/11/19 00:03:52;;;;;;;16.67;5.03;;;14.70;95.50;;;;;;5073482;28;20052;-66
2021/11/19 00:06:19;;;;;;;14.65;5.25;;;14.60;95.70;;;;;;5071946;28;20059;-66
2021/11/19 00:08:47;;;;;;;11.77;2.70;;;14.60;95.80;;;;;;5043000;28;20101;-67
2021/11/19 00:11:23;;;;;;;8.43;3.00;;;14.60;95.90;;;;;;5070946;28;20101;-67
2021/11/19 00:13:49;;;;;;;12.13;5.68;;;14.70;95.90;;;;;;5061575;28;20040;-66
2021/11/19 00:16:16;;;;;;;9.73;3.40;;;14.90;95.70;;;;;;5071660;28;20032;-66
2021/11/19 00:18:42;;;;;;;8.98;4.47;;;15.00;95.60;;;;;;5071278;28;20060;-66
2021/11/19 00:21:08;;;;;;;10.32;3.35;;;15.10;95.40;;;;;;5059573;28;20529;-66
2021/11/19 00:23:34;;;;;;;12.50;3.20;;;15.10;95.30;;;;;;5071837;28;20457;-66
2021/11/19 00:26:00;;;;;;;5.75;2.30;;;15.20;95.10;;;;;;5072232;28;20093;-66
2021/11/19 00:28:27;;;;;;;6.28;2.53;;;15.30;94.90;;;;;;5071316;28;20041;-67
2021/11/19 00:30:52;;;;;;;10.02;4.03;;;15.50;94.80;;;;;;5072504;28;20110;-67
2021/11/19 00:33:19;;;;;;;7.20;3.55;;;15.60;94.50;;;;;;5090131;28;20173;-67
2021/11/19 00:35:46;;;;;;;12.60;4.78;;;15.70;94.50;;;;;;5071196;28;20044;-66
2021/11/19 00:38:14;;;;;;;7.72;2.75;;;15.90;94.00;;;;;;5042261;28;20036;-66
2021/11/19 00:40:44;;;;;;;4.05;2.00;;;15.90;93.80;;;;;;5088261;28;20044;-67
2021/11/19 00:43:11;;;;;;;9.25;3.22;;;15.90;93.70;;;;;;5071728;28;20048;-66
2021/11/19 00:45:37;;;;;;;15.80;5.93;;;16.00;93.70;;;;;;5072256;28;20040;-66
2021/11/19 00:48:05;;;;;;;14.63;5.00;;;15.90;93.40;;;;;;5070264;28;20029;-66
2021/11/19 00:50:38;;;;;;;11.30;4.18;;;15.80;93.40;;;;;;5072551;28;20043;-66
2021/11/19 00:53:06;;;;;;;7.65;2.88;;;15.80;93.50;;;;;;5071274;28;20066;-67
2021/11/19 00:55:32;;;;;;;8.68;3.20;;;15.80;93.70;;;;;;5087673;28;20036;-66
2021/11/19 00:57:58;;;;;;;8.45;3.90;;;15.90;93.40;;;;;;5071513;28;20029;-67
2021/11/19 01:00:31;;;;;;;17.98;5.80;;;15.90;93.20;;;;;;5071096;28;20417;-66
2021/11/19 01:02:58;;;;;;;10.90;3.85;;;15.90;93.20;;;;;;5070534;28;20072;-67
2021/11/19 01:05:24;;;;;;;11.95;5.07;;;15.70;93.30;;;;;;5059160;28;20126;-66
2021/11/19 01:07:49;;;;;;;9.10;3.90;;;15.70;93.40;;;;;;5070375;28;20165;-66
2021/11/19 01:10:22;;;;;;;7.25;3.45;;;15.60;93.40;;;;;;5070891;28;20040;-66
2021/11/19 01:12:48;;;;;;;13.17;4.67;;;15.70;93.40;;;;;;5072236;28;20134;-66
2021/11/19 01:15:29;;;;;;;15.13;4.80;;;15.70;93.30;;;;;;5073144;28;20701;-66
2021/11/19 01:18:02;;;;;;;9.57;3.55;;;15.60;93.30;;;;;;5070116;28;20035;-66
2021/11/19 01:20:31;;;;;;;9.70;4.32;;;15.50;93.50;;;;;;5070355;28;20037;-66
2021/11/19 01:22:59;;;;;;;12.32;4.70;;;15.40;93.50;;;;;;5068407;28;20068;-67
2021/11/19 01:25:28;;;;;;;7.25;3.15;;;15.40;93.60;;;;;;5072478;28;20087;-66
2021/11/19 01:27:55;;;;;;;14.10;5.75;;;15.30;93.60;;;;;;5059324;28;20039;-66
2021/11/19 01:30:26;;;;;;;13.00;4.88;;;15.30;93.60;;;;;;5069989;28;20055;-66
2021/11/19 01:32:52;;;;;;;10.55;5.18;;;15.20;93.70;;;;;;5071206;28;20044;-66
2021/11/19 01:35:18;;;;;;;13.45;4.97;;;15.20;94.10;;;;;;5073809;28;20032;-65
2021/11/19 01:37:44;;;;;;;10.88;3.97;;;15.10;93.90;;;;;;5070038;28;21343;-65
2021/11/19 01:40:13;;;;;;;7.10;2.90;;;15.00;94.00;;;;;;5071211;28;20039;-66
2021/11/19 01:42:44;;;;;;;10.85;3.90;;;15.10;94.10;;;;;;5071584;28;20812;-68
2021/11/19 01:45:17;;;;;;;11.07;2.80;;;15.10;94.00;;;;;;5071439;28;20370;-66
2021/11/19 01:47:45;;;;;;;;;;;15.20;93.90;;;;;;5072153;28;22298;-66
2021/11/19 01:50:37;;;;;;;7.68;3.35;;;15.40;94.00;;;;;;5068238;28;19920;-66
2021/11/19 01:53:24;;;;;;;13.43;4.30;;;15.50;93.70;;;;;;5036707;28;20091;-67
2021/11/19 01:56:15;;;;;;;6.95;2.20;;;15.40;93.60;;;;;;5073726;28;20433;-67
2021/11/19 01:58:54;;;;;;;9.70;3.45;;;15.40;93.60;;;;;;5055975;28;20041;-66
2021/11/19 02:01:34;;;;;;;11.10;4.40;;;15.40;93.70;;;;;;5069715;28;20036;-67
2021/11/19 02:04:05;;;;;;;10.48;3.40;;;15.40;93.60;;;;;;5069650;28;20059;-67
2021/11/19 02:06:39;;;;;;;14.57;3.63;;;15.30;93.60;;;;;;5087214;28;20044;-67
2021/11/19 02:09:07;;;;;;;;;;;15.30;93.70;;;;;;5072550;28;20111;-67
2021/11/19 02:11:54;;;;;;;10.07;2.25;;;15.40;93.80;;;;;;5069240;28;22204;-65
2021/11/19 02:14:22;;;;;;;8.00;2.72;;;15.40;93.70;;;;;;5071044;28;20044;-65
2021/11/19 02:16:57;;;;;;;5.75;2.60;;;15.50;93.60;;;;;;5072720;28;20119;-65
2021/11/19 02:19:28;;;;;;;12.73;3.92;;;15.60;93.40;;;;;;5039527;28;20156;-65
2021/11/19 02:22:01;;;;;;;7.72;2.80;;;15.80;93.10;;;;;;5069449;28;20539;-66
2021/11/19 02:24:29;;;;;;;7.20;2.45;;;15.80;93.00;;;;;;5070222;28;20044;-65
2021/11/19 02:27:32;;;;;;;5.25;2.35;;;15.90;92.90;;;;;;5058409;28;20097;-66
2021/11/19 02:30:17;;;;;;;9.32;3.17;;;16.00;92.70;;;;;;5057019;28;20389;-65
2021/11/19 02:32:47;;;;;;;8.43;2.78;;;16.00;92.60;;;;;;5069842;28;20052;-65
2021/11/19 02:35:21;;;;;;;8.60;2.55;;;16.00;92.60;;;;;;5072960;28;20048;-66
2021/11/19 02:37:56;;;;;;;9.80;2.45;;;16.10;92.50;;;;;;5076139;28;20047;-65
2021/11/19 02:40:29;;;;;;;4.22;1.90;;;16.10;92.40;;;;;;5072559;28;20051;-65
2021/11/19 02:43:05;;;;;;;9.02;3.03;;;16.20;92.30;;;;;;5073208;28;20032;-59
2021/11/19 02:45:42;;;;;;;11.25;3.28;;;16.30;92.10;;;;;;5088507;28;20423;-59
2021/11/19 02:48:12;;;;;;;8.20;2.75;;;16.50;91.90;;;;;;5073194;28;20046;-59
2021/11/19 02:50:38;;;;;;;11.95;3.28;;;16.50;91.80;;;;;;5073936;28;20119;-60
2021/11/19 02:53:05;;;;;;;11.85;3.80;;;16.50;91.70;;;;;;5060684;28;20054;-60
2021/11/19 02:55:35;;;;;;;6.88;2.13;;;16.40;91.70;;;;;;5072754;28;20488;-59
2021/11/19 02:58:03;;;;;;;5.45;1.85;;;16.40;91.70;;;;;;5077028;28;20040;-59
2021/11/19 03:00:42;;;;;;;6.97;1.65;;;16.40;91.70;;;;;;5071874;28;20044;-59
2021/11/19 03:03:08;;;;;;;8.93;2.70;;;16.50;91.60;;;;;;5073185;28;20132;-59
2021/11/19 03:05:34;;;;;;;7.80;2.47;;;16.50;91.50;;;;;;5074319;28;20126;-60
2021/11/19 03:07:59;;;;;;;8.40;2.08;;;16.50;91.50;;;;;;5044809;28;20228;-60
2021/11/19 03:10:36;;;;;;;9.70;2.60;;;16.50;91.50;;;;;;5073992;28;20056;-59
2021/11/19 03:13:05;;;;;;;6.05;2.08;;;16.60;91.40;;;;;;5072360;28;20044;-59
2021/11/19 03:15:34;;;;;;;7.65;2.45;;;16.60;91.30;;;;;;5072863;28;20072;-60
2021/11/19 03:18:01;;;;;;;4.75;1.85;;;16.60;91.20;;;;;;5074163;28;20032;-59
2021/11/19 03:20:27;;;;;;;8.55;2.55;;;16.60;91.40;;;;;;5072957;28;20146;-60
2021/11/19 03:22:55;;;;;;;7.45;2.35;;;16.70;91.40;;;;;;5073423;28;20035;-59
2021/11/19 03:25:26;;;;;;;7.03;2.30;;;16.70;91.10;;;;;;5061643;28;20048;-59
2021/11/19 03:27:51;;;;;;;12.00;3.92;;;16.70;91.10;;;;;;5060492;28;20032;-60
2021/11/19 03:30:19;;;;;;;6.07;2.70;;;16.70;91.10;;;;;;5073864;28;20117;-59
2021/11/19 03:32:47;;;;;;;9.98;2.42;;;16.60;91.00;;;;;;5071210;28;20129;-59
2021/11/19 03:35:15;;;;;;;9.88;2.60;;;16.60;91.00;;;;;;5074247;28;20032;-59
2021/11/19 03:37:46;;;;;;;7.55;2.60;;;16.60;91.00;;;;;;5074052;28;20078;-59
2021/11/19 03:40:14;;;;;;;5.20;2.30;;;16.60;91.00;;;;;;5073799;28;20171;-60
2021/11/19 03:42:40;;;;;;;7.57;1.88;;;16.60;90.90;;;;;;5072088;28;20043;-59
2021/11/19 03:45:09;;;;;;;7.50;3.03;;;16.70;90.90;;;;;;5073070;28;20491;-60
2021/11/19 03:47:38;;;;;;;5.55;1.63;;;16.70;90.70;;;;;;5072419;28;20036;-60
2021/11/19 03:50:10;;;;;;;6.72;2.47;;;16.60;90.80;;;;;;5073102;28;20040;-59
2021/11/19 03:52:38;;;;;;;6.65;2.35;;;16.70;90.80;;;;;;5070603;28;20118;-60
2021/11/19 03:55:13;;;;;;;9.25;2.80;;;16.60;90.70;;;;;;5088145;28;20043;-59
2021/11/19 03:57:40;;;;;;;10.35;2.63;;;16.70;90.70;;;;;;5072990;28;20028;-59
2021/11/19 04:00:16;;;;;;;9.90;3.65;;;16.60;90.70;;;;;;5074743;28;20155;-59
2021/11/19 04:02:42;;;;;;;9.73;2.22;;;16.50;90.70;;;;;;5059005;28;20094;-59
2021/11/19 04:05:08;;;;;;;8.68;2.65;;;16.40;90.90;;;;;;5071889;28;20045;-59
2021/11/19 04:07:34;;;;;;;14.35;3.92;;;16.40;90.90;;;;;;5071907;28;20472;-60
2021/11/19 04:09:59;;;;;;;5.75;2.67;;;16.50;90.80;;;;;;5072531;28;20067;-60
2021/11/19 04:12:25;;;;;;;8.40;3.05;;;16.50;90.80;;;;;;5072680;28;20040;-59
2021/11/19 04:14:52;;;;;;;12.10;3.13;;;16.50;90.70;;;;;;5071806;28;20174;-59
2021/11/19 04:17:18;;;;;;;8.85;2.25;;;16.50;90.70;;;;;;5072816;28;20037;-60
2021/11/19 04:19:43;;;;;;;4.82;1.65;;;16.50;90.60;;;;;;5074479;28;20333;-59
2021/11/19 04:22:14;;;;;;;6.70;3.08;;;16.50;90.60;;;;;;5071909;28;20045;-60
2021/11/19 04:24:48;;;;;;;7.22;2.75;;;16.50;90.70;;;;;;5072344;28;20370;-59
2021/11/19 04:27:15;;;;;;;7.43;2.08;;;16.60;90.70;;;;;;5073078;28;20040;-60
2021/11/19 04:29:41;;;;;;;5.85;2.28;;;16.60;90.60;;;;;;5072065;28;20880;-59
2021/11/19 04:32:09;;;;;;;7.78;2.55;;;16.70;90.50;;;;;;5073029;28;20509;-60
2021/11/19 04:34:36;;;;;;;5.85;2.03;;;16.70;90.40;;;;;;5070705;28;20105;-60
2021/11/19 04:37:02;;;;;;;5.55;2.35;;;16.70;90.40;;;;;;5059937;28;20044;-60
2021/11/19 04:39:28;;;;;;;8.00;2.75;;;16.70;90.40;;;;;;5073867;28;20486;-60
2021/11/19 04:41:54;;;;;;;5.28;1.77;;;16.70;90.40;;;;;;5072728;28;20029;-59
2021/11/19 04:44:20;;;;;;;7.50;2.75;;;16.70;90.40;;;;;;5058033;28;20044;-59
2021/11/19 04:46:47;;;;;;;5.35;1.98;;;16.70;90.30;;;;;;5072018;28;20093;-59
2021/11/19 04:49:14;;;;;;;5.93;1.90;;;16.70;90.30;;;;;;5071607;28;20040;-59
2021/11/19 04:51:42;;;;;;;7.03;2.53;;;16.70;90.20;;;;;;5072761;28;20040;-59
2021/11/19 04:54:10;;;;;;;9.45;2.97;;;16.80;90.20;;;;;;5069721;28;20569;-59
2021/11/19 04:56:37;;;;;;;6.15;2.20;;;16.80;90.10;;;;;;5069321;28;20125;-60
2021/11/19 04:59:05;;;;;;;4.78;1.75;;;16.80;90.00;;;;;;5071708;28;20032;-60
2021/11/19 05:01:34;;;;;;;5.47;1.92;;;16.80;90.00;;;;;;5073981;28;20138;-60
2021/11/19 05:04:01;;;;;;;7.50;2.15;;;16.80;90.00;;;;;;5068854;28;20408;-60
2021/11/19 05:06:27;;;;;;;5.78;2.40;;;16.80;90.00;;;;;;5071040;28;20131;-69
2021/11/19 05:08:53;;;;;;;14.25;4.70;;;16.90;89.80;;;;;;5071432;28;20229;-70
2021/11/19 05:11:26;;;;;;;10.48;4.20;;;16.70;89.80;;;;;;5073075;28;20384;-69
2021/11/19 05:13:52;;;;;;;15.02;5.07;;;16.40;90.20;;;;;;5069364;28;20068;-69
2021/11/19 05:16:19;;;;;;;14.65;4.15;;;16.00;90.80;;;;;;5069809;28;22265;-69
2021/11/19 05:18:46;;;;;;;10.32;4.53;;;15.60;91.30;;;;;;5087202;28;20045;-70
2021/11/19 05:21:14;;;;;;;12.57;5.25;;;15.40;91.80;;;;;;5072216;28;20036;-70
2021/11/19 05:23:40;;;;;;;13.80;4.60;;;15.10;92.30;;;;;;5070213;28;20041;-70
2021/11/19 05:26:08;;;;;;;15.52;4.88;;;14.80;92.80;;;;;;5057269;28;20559;-70
2021/11/19 05:28:34;;;;;;;17.05;4.93;;;14.60;93.10;;;;;;5087636;28;20052;-70
2021/11/19 05:31:01;;;;;;;13.15;5.55;;;14.50;93.50;;;;;;5086445;28;20454;-70
2021/11/19 05:33:29;;;;;;;16.50;5.05;;;14.40;93.70;;;;;;5058420;28;20039;-70
2021/11/19 05:35:55;;;;;;;17.80;5.93;;;14.30;94.00;;;;;;5068895;28;20427;-69
2021/11/19 05:38:23;;;;;;;11.30;5.10;;;14.20;94.20;;;;;;5070833;28;20039;-69
2021/11/19 05:40:50;;;;;;;14.85;5.97;;;14.10;94.40;;;;;;5041290;28;20676;-70
2021/11/19 05:43:16;;;;;;;13.98;5.82;;;14.00;94.50;;;;;;5070547;28;20036;-69
2021/11/19 05:45:42;;;;;;;12.95;5.25;;;14.00;94.70;;;;;;5069438;28;20036;-70
2021/11/19 05:48:08;;;;;;;14.88;5.03;;;13.90;94.80;;;;;;5069128;28;20522;-69
2021/11/19 05:50:36;;;;;;;15.18;6.32;;;13.80;95.00;;;;;;5068310;28;20495;-69
2021/11/19 05:53:04;;;;;;;16.25;6.97;;;13.80;95.10;;;;;;5058105;28;20068;-69
2021/11/19 05:55:33;;;;;;;14.35;5.72;;;13.70;95.30;;;;;;5058077;28;20058;-69
2021/11/19 05:58:00;;;;;;;13.90;5.80;;;13.70;95.40;;;;;;5068708;28;20052;-69
2021/11/19 06:00:32;;;;;;;17.52;6.30;;;13.60;95.50;;;;;;5085957;28;20040;-69
2021/11/19 06:02:58;;;;;;;12.18;5.28;;;13.60;95.60;;;;;;5071912;28;20067;-70
2021/11/19 06:05:24;;;;;;;16.00;6.45;;;13.50;95.70;;;;;;5068879;28;20055;-69
2021/11/19 06:07:50;;;;;;;16.13;6.28;;;13.50;95.80;;;;;;5070551;28;20036;-69
2021/11/19 06:10:18;;;;;;;13.13;5.55;;;13.50;95.90;;;;;;5070129;28;20389;-71
2021/11/19 06:12:50;;;;;;;14.52;5.47;;;13.50;95.90;;;;;;5086551;28;20537;-70
2021/11/19 06:15:22;;;;;;;15.05;7.10;;;13.50;96.10;;;;;;5057545;28;20042;-71
2021/11/19 06:17:50;;;;;;;20.20;7.38;;;13.40;96.10;;;;;;5050575;28;20056;-70
2021/11/19 06:20:36;;;;;;;14.45;6.05;;;13.40;96.20;;;;;;5070205;28;20155;-71
2021/11/19 06:23:10;;;;;;;12.20;5.65;;;13.40;96.30;;;;;;5072310;28;20039;-70
2021/11/19 06:25:37;;;;;;;13.32;5.95;;;13.40;96.30;;;;;;5070309;28;20127;-69
2021/11/19 06:28:06;;;;;;;15.65;5.65;;;13.40;96.30;;;;;;5068001;28;20040;-70
2021/11/19 06:30:32;;;;;;;15.95;6.00;;;13.40;96.40;;;;;;5057309;28;20468;-71
2021/11/19 06:32:58;;;;;;;16.50;6.38;;;13.50;96.40;;;;;;5068556;28;20032;-69
2021/11/19 06:35:24;;;;;;;14.57;5.90;;;13.50;96.40;;;;;;5085867;28;20044;-69
2021/11/19 06:37:50;;;;;;;16.23;5.40;;;13.50;96.40;;;;;;5056496;28;20086;-69
2021/11/19 06:40:20;;;;;;;18.13;6.25;;;13.50;96.40;;;;;;5071752;28;20435;-69
2021/11/19 06:42:46;;;;;;;15.23;5.47;;;13.50;96.50;;;;;;5069893;28;20040;-69
2021/11/19 06:45:14;;;;;;;19.17;5.28;;;13.50;96.50;;;;;;5071038;28;20059;-69
2021/11/19 06:47:41;;;;;;;12.25;5.15;;;13.50;96.50;;;;;;5069869;28;20032;-68
2021/11/19 06:50:08;;;;;;;15.98;6.20;;;13.60;96.50;;;;;;5070346;28;20502;-69
2021/11/19 06:52:34;;;;;;;16.17;5.38;;;13.50;96.60;;;;;;5085203;28;20048;-70
2021/11/19 06:54:59;;;;;;;15.18;5.82;;;13.50;96.60;;;;;;5069906;28;20500;-71
2021/11/19 06:57:25;;;;;;;13.55;4.43;;;13.50;96.60;;;;;;5085755;28;20118;-70
2021/11/19 06:59:51;;;;;;;17.35;5.63;;;13.50;96.60;;;;;;5068338;28;20036;-70
2021/11/19 07:02:17;;;;;;;17.27;5.60;;;13.50;96.60;;;;;;5069413;28;20063;-69
2021/11/19 07:04:43;;;;;;;17.55;5.13;;;13.50;96.60;;;;;;5072347;28;20121;-70
2021/11/19 07:07:10;;;;;;;14.15;5.13;;;13.50;96.70;;;;;;5067907;28;20040;-70
2021/11/19 07:09:37;;;;;;;14.40;5.32;;;13.50;96.70;;;;;;5070835;28;20033;-70
2021/11/19 07:12:06;;;;;;;13.30;4.55;;;13.40;96.80;;;;;;5057471;28;20879;-70
2021/11/19 07:14:32;;;;;;;16.77;5.20;;;13.40;96.80;;;;;;5071372;28;20047;-70
2021/11/19 07:16:57;;;;;;;15.85;5.55;;;13.40;96.80;;;;;;5069940;28;20036;-71
2021/11/19 07:19:23;;;;;;;19.35;5.50;;;13.30;96.90;;;;;;5068949;28;20045;-69
2021/11/19 07:21:53;;;;;;;18.60;5.40;;;13.40;96.90;;;;;;5042638;28;20494;-70
2021/11/19 07:24:19;;;;;;;13.05;5.35;;;13.30;96.90;;;;;;5072631;28;20402;-70
2021/11/19 07:26:45;;;;;;;17.48;5.53;;;13.30;97.00;;;;;;5072516;28;20149;-70
2021/11/19 07:29:11;;;;;;;11.95;5.38;;;13.30;97.00;;;;;;5073763;28;20037;-69
2021/11/19 07:31:37;;;;;;;11.60;4.55;;;13.30;97.00;;;;;;5073038;28;22249;-68
2021/11/19 07:34:04;;;;;;;13.77;5.13;;;13.30;97.00;;;;;;5074139;28;20040;-68
2021/11/19 07:36:30;;;;;;;9.90;4.32;;;13.30;97.00;;;;;;5072622;28;20410;-68
2021/11/19 07:38:56;;;;;;;11.82;4.95;;;13.30;97.10;;;;;;5072925;28;20040;-68
2021/11/19 07:41:23;;;;;;;16.13;4.82;;;13.20;97.00;;;;;;5072750;28;20071;-69
2021/11/19 07:43:50;;;;;;;14.32;4.68;;;13.30;97.10;;;;;;5066560;28;20682;-69
2021/11/19 07:46:20;;;;;;;16.52;5.43;;;13.20;97.10;;;;;;5071376;28;20047;-69
2021/11/19 07:48:47;;;;;;;12.77;4.80;;;13.30;97.20;;;;;;5069103;28;20075;-69
2021/11/19 07:51:17;;;;;;;18.25;5.65;;;13.20;97.10;;;;;;5086556;28;20047;-70
2021/11/19 07:53:44;;;;;;;18.38;5.38;;;13.20;97.20;;;;;;5072110;28;20048;-69
2021/11/19 07:56:11;;;;;;;15.20;4.90;;;13.20;97.40;;;;;;5072861;28;20062;-70
2021/11/19 07:58:38;;;;;;;19.13;4.57;;;13.20;97.20;;;;;;5073636;28;20072;-69
2021/11/19 08:01:05;;;;;;;14.00;4.60;;;13.20;97.20;;;;;;5073978;28;20043;-70
2021/11/19 08:03:31;;;;;;;14.57;4.28;;;13.20;97.20;;;;;;5042038;28;20059;-69
2021/11/19 08:05:59;;;;;;;13.10;4.60;;;13.30;97.20;;;;;;5072190;28;20120;-70
2021/11/19 08:08:27;;;;;;;15.77;4.97;;;13.30;97.30;;;;;;5072629;28;20039;-69
2021/11/19 08:10:53;;;;;;;12.65;4.30;;;13.30;97.30;;;;;;5072406;28;20114;-70
2021/11/19 08:13:20;;;;;;;11.55;3.67;;;13.20;97.30;;;;;;5071375;28;20036;-69
2021/11/19 08:15:46;;;;;;;16.20;3.78;;;13.30;97.30;;;;;;5070308;28;20044;-70
2021/11/19 08:18:21;;;;;;;9.80;3.53;;;13.30;97.40;;;;;;5070915;28;20041;-70
2021/11/19 08:20:48;;;;;;;14.43;4.10;;;13.30;97.40;;;;;;5074431;28;20082;-70
2021/11/19 08:23:21;;;;;;;13.38;3.65;;;13.30;97.30;;;;;;5069462;28;20041;-70
2021/11/19 08:25:47;;;;;;;14.32;3.45;;;13.30;97.30;;;;;;5070451;28;20074;-70
2021/11/19 08:28:13;;;;;;;11.45;3.60;;;13.40;97.30;;;;;;5088373;28;20182;-70
2021/11/19 08:30:44;;;;;;;10.20;3.42;;;13.40;97.30;;;;;;5059014;28;20049;-70
2021/11/19 08:33:11;;;;;;;20.83;3.70;;;13.40;97.20;;;;;;5057894;28;20049;-71
2021/11/19 08:35:42;;;;;;;12.30;3.30;;;13.40;97.20;;;;;;5069286;28;20093;-71
2021/11/19 08:38:21;;;;;;;21.50;4.05;;;13.40;97.20;;;;;;5071768;28;20155;-70
2021/11/19 08:40:48;;;;;;;19.15;3.53;;;13.40;97.20;;;;;;5074246;28;20044;-68
2021/11/19 08:43:20;;;;;;;15.50;4.13;;;13.40;97.20;;;;;;5085909;28;20645;-68
2021/11/19 08:45:48;;;;;;;10.77;3.20;;;13.40;97.20;;;;;;5070665;28;20041;-69
2021/11/19 08:48:14;;;;;;;13.85;2.88;;;13.50;97.20;;;;;;5071565;28;20313;-69
2021/11/19 08:50:40;;;;;;;14.07;3.05;;;13.50;97.20;;;;;;5072828;28;20040;-69
2021/11/19 08:53:10;;;;;;;15.75;2.97;;;13.50;97.10;;;;;;5071067;28;20051;-61
2021/11/19 08:55:44;;;;;;;13.63;3.00;;;13.50;97.10;;;;;;5070509;28;20040;-61
2021/11/19 08:58:17;;;;;;;14.02;2.88;;;13.50;97.10;;;;;;5059814;28;20454;-62
2021/11/19 09:00:44;;;;;;;17.10;3.63;;;13.60;97.10;;;;;;5071645;28;20067;-61
2021/11/19 09:03:10;;;;;;;14.23;3.08;;;13.60;97.00;;;;;;5069373;28;20078;-61
2021/11/19 09:05:38;;;;;;;13.82;3.20;;;13.60;97.00;;;;;;5070465;28;20048;-62
2021/11/19 09:08:07;;;;;;;13.95;3.33;;;13.60;97.00;;;;;;5070610;28;20408;-62
2021/11/19 09:10:33;;;;;;;14.05;2.75;;;13.60;97.00;;;;;;5072796;28;20051;-62
2021/11/19 09:13:00;;;;;;;11.88;2.92;;;13.60;97.00;;;;;;5071417;28;20071;-61
2021/11/19 09:15:26;;;;;;;14.60;3.63;;;13.70;97.00;;;;;;5071026;28;20051;-61
2021/11/19 09:18:01;;;;;;;16.67;3.25;;;13.70;96.90;;;;;;5072322;28;20040;-61
2021/11/19 09:20:38;;;;;;;11.30;2.20;;;13.70;96.80;;;;;;5071622;28;20044;-61
2021/11/19 09:23:10;;;;;;;9.20;2.88;;;13.70;96.80;;;;;;5068287;28;20075;-61
2021/11/19 09:25:37;;;;;;;8.35;2.20;;;13.80;96.80;;;;;;5086114;28;20074;-61
2021/11/19 09:28:04;;;;;;;17.00;3.22;;;13.80;96.80;;;;;;5071429;28;20028;-61
2021/11/19 09:30:37;;;;;;;13.65;2.40;;;13.90;96.70;;;;;;5070091;28;20044;-63
2021/11/19 09:33:06;;;;;;;15.85;3.35;;;13.90;96.60;;;;;;5071587;28;20464;-62
2021/11/19 09:35:33;;;;;;;10.15;2.38;;;13.90;96.50;;;;;;5070917;28;20043;-60
2021/11/19 09:38:01;;;;;;;10.77;3.05;;;13.90;96.30;;;;;;5084894;28;20037;-60
2021/11/19 09:40:32;;;;;;;18.45;2.97;;;13.90;96.40;;;;;;5083959;28;20037;-64
2021/11/19 09:43:19;;;;;;;13.75;2.95;;;13.90;96.40;;;;;;5069701;28;20054;-62
2021/11/19 09:46:18;;;;;;;17.27;3.05;;;14.10;96.90;;;;;;5083832;28;20062;-59
2021/11/19 09:49:13;;;;;;;11.20;2.30;;;14.50;97.20;;;;;;5071347;28;20090;-58
2021/11/19 09:52:03;;;;;;;12.43;2.22;;;15.00;97.10;;;;;;5070850;28;20036;-59
2021/11/19 09:55:06;;;;;;;10.05;2.17;;;15.50;96.50;;;;;;5070280;28;22292;-59
2021/11/19 09:57:34;;;;;;;10.52;2.83;;;15.80;96.30;;;;;;5072399;28;20035;-59
2021/11/19 10:00:25;;;;;;;11.77;2.45;;;16.10;95.70;;;;;;5058579;28;20052;-59
2021/11/19 10:03:22;;;;;;;15.18;2.58;;;16.40;95.10;;;;;;5070239;28;20523;-59
2021/11/19 10:05:55;;;;;;;9.63;2.28;;;16.60;94.30;;;;;;5071286;28;20052;-59
2021/11/19 10:08:25;;;;;;;7.72;2.33;;;16.80;94.20;;;;;;5058101;28;20036;-59
2021/11/19 10:11:00;;;;;;;8.35;2.28;;;17.00;94.00;;;;;;5071253;28;20044;-59
2021/11/19 10:14:02;;;;;;;9.27;2.35;;;17.20;93.60;;;;;;5068865;28;20044;-58
2021/11/19 10:16:48;;;;;;;11.00;2.03;;;17.50;93.20;;;;;;5070008;28;20036;-58
2021/11/19 10:19:30;;;;;;;7.00;1.80;;;17.60;92.90;;;;;;5071673;28;20032;-60
2021/11/19 10:22:12;;;;;;;10.40;2.47;;;17.80;92.50;;;;;;5068640;28;20043;-60
2021/11/19 10:24:58;;;;;;;9.25;2.03;;;17.90;91.80;;;;;;5070484;28;20447;-59
2021/11/19 10:27:31;;;;;;;8.45;2.17;;;18.00;91.80;;;;;;5067539;28;20048;-60
2021/11/19 10:30:00;;;;;;;;;;;18.00;91.30;;;;;;5068980;28;20037;-60
2021/11/19 10:32:29;;;;;;;7.15;2.20;;;18.10;92.00;;;;;;5056889;28;19924;-59
2021/11/19 10:35:26;;;;;;;11.80;2.17;;;18.00;91.20;;;;;;5085724;28;20041;-59
2021/11/19 10:38:06;;;;;;;7.40;2.05;;;18.00;90.90;;;;;;5071614;28;20097;-62
2021/11/19 10:40:47;;;;;;;7.57;2.42;;;17.80;90.50;;;;;;5069247;28;20128;-59
2021/11/19 10:44:01;;;;;;;11.38;2.47;;;17.80;90.80;;;;;;5068636;28;20054;-59
2021/11/19 10:46:42;;;;;;;8.93;2.15;;;17.80;90.70;;;;;;5069838;28;20519;-60
2021/11/19 10:49:27;;;;;;;12.25;2.40;;;17.70;90.50;;;;;;5070119;28;20047;-59
2021/11/19 10:52:25;;;;;;;8.35;2.10;;;17.70;90.50;;;;;;5067891;28;20097;-58
2021/11/19 10:54:59;;;;;;;6.38;1.80;;;17.60;91.00;;;;;;5071055;28;20121;-58
2021/11/19 10:58:02;;;;;;;10.13;2.28;;;17.70;90.90;;;;;;5074520;28;20045;-64
2021/11/19 11:00:58;;;;;;;10.18;2.03;;;17.80;91.00;;;;;;5073879;28;20048;-64
2021/11/19 11:03:29;;;;;;;9.98;2.72;;;17.80;90.70;;;;;;5071602;28;20481;-64
2021/11/19 11:06:05;;;;;;;9.65;1.92;;;17.80;90.20;;;;;;5074010;28;20389;-64
2021/11/19 11:08:41;;;;;;;6.72;1.65;;;17.80;90.20;;;;;;5073388;28;20041;-64
2021/11/19 11:11:31;;;;;;;9.00;2.15;;;17.80;90.30;;;;;;5070131;28;20155;-64
2021/11/19 11:13:56;;;;;;;8.38;2.00;;;17.70;89.80;;;;;;5073873;28;20425;-64
2021/11/19 11:16:25;;;;;;;9.23;2.42;;;17.50;90.20;;;;;;5076016;28;20070;-64
2021/11/19 11:18:50;;;;;;;6.95;1.77;;;17.50;90.10;;;;;;5072332;28;20048;-64
2021/11/19 11:21:27;;;;;;;10.20;2.22;;;17.40;90.00;;;;;;5072681;28;20118;-64
2021/11/19 11:23:57;;;;;;;11.38;1.90;;;17.20;89.50;;;;;;5074180;28;20373;-64
2021/11/19 11:26:45;;;;;;;13.90;2.33;;;17.10;90.20;;;;;;5073529;28;20131;-64
2021/11/19 11:29:16;;;;;;;9.57;2.60;;;17.00;90.60;;;;;;5071245;28;20052;-64
2021/11/19 11:31:57;;;;;;;15.40;2.17;;;17.10;90.70;;;;;;5073860;28;20036;-58
2021/11/19 11:35:04;;;;;;;6.70;1.73;;;17.20;90.70;;;;;;5074996;28;20508;-59
2021/11/19 11:38:00;;;;;;;9.40;1.65;;;17.20;90.60;;;;;;5071713;28;20048;-59
2021/11/19 11:40:51;;;;;;;10.75;1.80;;;17.20;90.70;;;;;;5072017;28;20037;-59
2021/11/19 11:43:26;;;;;;;7.88;2.38;;;17.30;90.60;;;;;;5072383;28;20208;-59
2021/11/19 11:45:59;;;;;;;8.95;1.80;;;17.30;90.30;;;;;;5088760;28;20125;-59
2021/11/19 11:48:37;;;;;;;8.45;2.08;;;17.40;90.40;;;;;;5070975;28;20408;-59
2021/11/19 11:51:08;;;;;;;7.97;1.92;;;17.30;90.00;;;;;;5073346;28;20098;-59
2021/11/19 11:54:11;;;;;;;9.73;2.30;;;17.30;90.10;;;;;;5073080;28;20036;-59
2021/11/19 11:56:42;;;;;;;10.13;1.95;;;17.30;90.50;;;;;;5071792;28;20032;-59
2021/11/19 11:59:29;;;;;;;10.30;2.25;;;17.30;90.40;;;;;;5070474;28;20531;-59
2021/11/19 12:02:28;;;;;;;10.95;2.38;;;17.40;90.10;;;;;;5071642;28;20177;-59
2021/11/19 12:05:34;;;;;;;7.93;1.80;;;17.30;89.40;;;;;;5072241;28;20051;-58
2021/11/19 12:08:47;;;;;;;13.82;2.40;;;17.20;89.90;;;;;;5070914;28;20460;-59
2021/11/19 12:11:29;;;;;;;10.35;2.58;;;17.10;89.50;;;;;;5070746;28;20800;-58
2021/11/19 12:14:06;;;;;;;11.98;4.20;;;17.00;90.00;;;;;;5074531;28;20111;-58
2021/11/19 12:16:38;;;;;;;12.63;3.15;;;16.90;90.20;;;;;;5059212;28;20558;-58
2021/11/19 12:19:13;;;;;;;11.13;4.22;;;16.80;90.30;;;;;;5071538;28;20040;-59
2021/11/19 12:21:51;;;;;;;13.45;3.60;;;16.90;90.40;;;;;;5071984;28;20047;-59
2021/11/19 12:24:43;;;;;;;21.77;8.23;;;16.90;90.40;;;;;;5073123;28;20072;-59
2021/11/19 12:27:37;;;;;;;14.75;4.53;;;17.00;90.20;;;;;;5070158;28;20043;-59
2021/11/19 12:30:34;;;;;;;12.77;5.68;;;16.90;90.30;;;;;;5070905;28;20076;-58
2021/11/19 12:33:25;;;;;;;17.63;5.80;;;16.90;90.40;;;;;;5072138;28;20042;-58
2021/11/19 12:36:05;;;;;;;14.43;3.63;;;16.80;90.20;;;;;;5070683;28;20959;-59
2021/11/19 12:38:36;;;;;;;9.57;2.88;;;16.80;90.10;;;;;;5071248;28;20036;-59
2021/11/19 12:41:05;;;;;;;21.15;3.85;;;16.80;90.10;;;;;;5071761;28;20058;-59
2021/11/19 12:43:37;;;;;;;13.05;3.67;;;16.80;90.10;;;;;;5072439;28;20055;-58
2021/11/19 12:46:41;;;;;;;12.38;5.18;;;16.70;90.00;;;;;;5070947;28;20105;-58
2021/11/19 12:49:29;;;;;;;14.63;2.88;;;16.70;90.40;;;;;;5072558;28;20072;-59
2021/11/19 12:52:22;;;;;;;12.20;3.42;;;16.70;90.30;;;;;;5074024;28;20048;-57
2021/11/19 12:55:00;;;;;;;;;;;16.70;90.20;;;;;;5071158;28;20445;-58
2021/11/19 12:57:35;;;;;;;8.75;3.40;;;16.70;90.40;;;;;;5071424;28;19927;-58
2021/11/19 13:00:04;;;;;;;6.90;2.25;;;16.70;90.40;;;;;;5075220;28;20036;-58
2021/11/19 13:02:41;;;;;;;10.90;2.83;;;16.70;90.30;;;;;;5071446;28;20123;-57
2021/11/19 13:05:07;;;;;;;7.63;3.22;;;16.60;90.30;;;;;;5071084;28;20378;-58
2021/11/19 13:07:45;;;;;;;11.20;3.80;;;16.60;90.50;;;;;;5070695;28;20046;-58